Terminal Aerodrome Forecast
Issued by NWS

Home | Current Version | Previous Version | Text Only | Print | Product List | Glossary On
Versions: 1 2 3 4 5 6 7 8 9 10 11 12
000
FTUS42 KILM 270535
TAFCRE
TAF
KCRE 270535Z 2706/2806 00000KT P6SM FEW060
      TEMPO 2709/2712 6SM BR
     FM271200 05006KT P6SM SKC
     FM271600 12008KT P6SM SCT050=

USA.gov is the U.S. government's official web portal to all federal, state and local government web resources and services.